createdAt,value
2022-09-05T00:01:27.845Z,5.22
2022-09-05T00:04:10.543Z,5.30
2022-09-05T00:06:55.688Z,4.55
2022-09-05T00:09:40.837Z,5.50
2022-09-05T00:12:10.547Z,5.53
2022-09-05T00:15:17.392Z,5.85
2022-09-05T00:18:20.313Z,6.63
2022-09-05T00:24:25.691Z,5.20
2022-09-05T00:24:36.938Z,5.57
2022-09-05T00:26:25.861Z,5.00
2022-09-05T00:29:00.286Z,6.70
2022-09-05T00:31:54.174Z,5.10
2022-09-05T00:34:47.359Z,5.07
2022-09-05T00:37:32.146Z,7.20
2022-09-05T00:40:18.687Z,6.13
2022-09-05T00:42:50.452Z,6.18
2022-09-05T00:45:25.259Z,5.25
2022-09-05T00:47:57.383Z,5.72
2022-09-05T00:50:30.875Z,5.07
2022-09-05T00:53:06.662Z,4.15
2022-09-05T00:55:40.584Z,4.38
2022-09-05T00:58:34.048Z,5.25
2022-09-05T01:01:03.761Z,5.45
2022-09-05T01:03:56.262Z,4.47
2022-09-05T01:06:36.414Z,5.47
2022-09-05T01:09:18.309Z,4.97
2022-09-05T01:11:53.572Z,6.28
2022-09-05T01:14:30.340Z,6.65
2022-09-05T01:17:17.809Z,6.63
2022-09-05T01:20:19.359Z,6.47
2022-09-05T01:23:00.541Z,5.20
2022-09-05T01:25:44.107Z,5.60
2022-09-05T01:29:17.314Z,5.72
2022-09-05T01:31:17.202Z,5.90
2022-09-05T01:33:50.105Z,5.53
2022-09-05T01:36:52.211Z,5.38
2022-09-05T01:40:11.750Z,5.38
2022-09-05T01:42:21.477Z,5.68
2022-09-05T01:44:57.909Z,5.85
2022-09-05T01:47:43.929Z,5.70
2022-09-05T01:50:26.756Z,5.53
2022-09-05T01:53:11.480Z,5.43
2022-09-05T01:56:04.820Z,5.88
2022-09-05T01:58:46.877Z,6.15
2022-09-05T02:01:31.712Z,5.50
2022-09-05T02:04:26.643Z,8.13
2022-09-05T02:07:19.234Z,5.78
2022-09-05T02:10:07.129Z,6.22
2022-09-05T02:12:37.869Z,6.65
2022-09-05T02:15:09.473Z,5.63
2022-09-05T02:17:51.804Z,6.18
2022-09-05T02:20:24.273Z,4.80
2022-09-05T02:23:00.543Z,5.82
2022-09-05T02:26:01.216Z,6.32
2022-09-05T02:28:24.145Z,5.60
2022-09-05T02:31:09.072Z,5.53
2022-09-05T02:34:00.138Z,6.18
2022-09-05T02:36:35.197Z,7.13
2022-09-05T02:45:01.822Z,5.28
2022-09-05T02:45:05.999Z,5.50
2022-09-05T02:45:18.802Z,5.78
2022-09-05T02:47:46.850Z,4.90
2022-09-05T02:57:30.282Z,6.63
2022-09-05T02:57:37.964Z,5.97
2022-09-05T02:59:13.830Z,6.35
2022-09-05T03:01:55.103Z,6.00
2022-09-05T03:04:30.032Z,5.82
2022-09-05T03:07:19.929Z,6.28
2022-09-05T03:09:59.261Z,6.47
2022-09-05T03:12:58.088Z,6.30
2022-09-05T03:16:06.465Z,5.63
2022-09-05T03:19:09.449Z,7.00
2022-09-05T03:22:09.572Z,6.90
2022-09-05T03:25:17.535Z,6.00
2022-09-05T03:28:21.995Z,5.00
2022-09-05T03:31:02.453Z,5.10
2022-09-05T03:33:46.566Z,7.07
2022-09-05T03:36:31.257Z,6.00
2022-09-05T03:39:31.055Z,7.00
2022-09-05T03:42:19.091Z,7.88
2022-09-05T03:45:08.204Z,5.85
2022-09-05T03:48:27.641Z,6.70
2022-09-05T03:57:04.605Z,5.90
2022-09-05T03:57:26.005Z,6.72
2022-09-05T03:57:41.503Z,6.65
2022-09-05T04:00:13.036Z,6.30
2022-09-05T04:08:10.479Z,7.55
2022-09-05T04:08:28.550Z,7.88
2022-09-05T04:08:42.043Z,6.65
2022-09-05T04:11:14.708Z,6.65
2022-09-05T04:13:49.054Z,5.70
2022-09-05T04:16:20.568Z,6.75
2022-09-05T04:18:52.242Z,6.15
2022-09-05T04:21:23.156Z,7.40
2022-09-05T04:24:02.958Z,5.45
2022-09-05T04:26:49.153Z,8.10
2022-09-05T04:29:25.223Z,6.70
2022-09-05T04:32:18.379Z,7.18
2022-09-05T04:34:54.541Z,6.80
2022-09-05T04:37:47.929Z,6.68
2022-09-05T04:40:34.347Z,5.57
2022-09-05T04:43:05.154Z,4.97
2022-09-05T04:45:41.182Z,5.75
2022-09-05T04:48:12.567Z,6.22
2022-09-05T04:51:00.559Z,6.43
2022-09-05T04:53:37.383Z,7.40
2022-09-05T04:56:08.310Z,7.03
2022-09-05T04:59:18.757Z,5.63
2022-09-05T05:06:00.370Z,6.50
2022-09-05T05:06:12.238Z,5.70
2022-09-05T05:07:19.706Z,6.53
2022-09-05T05:09:56.272Z,7.22
2022-09-05T05:18:01.113Z,8.63
2022-09-05T05:18:11.478Z,7.30
2022-09-05T05:18:49.465Z,7.80
2022-09-05T05:21:27.017Z,6.82
2022-09-05T05:23:57.977Z,7.05
2022-09-05T05:26:29.125Z,7.22
2022-09-05T05:29:00.865Z,6.93
2022-09-05T05:31:33.339Z,7.03
2022-09-05T05:34:14.484Z,6.78
2022-09-05T05:37:00.233Z,8.82
2022-09-05T05:39:31.142Z,8.38
2022-09-05T05:42:17.471Z,8.85
2022-09-05T05:44:50.788Z,7.25
2022-09-05T05:47:31.567Z,7.47
2022-09-05T05:50:11.671Z,8.07
2022-09-05T05:52:45.718Z,8.90
2022-09-05T05:55:52.698Z,7.53
2022-09-05T05:58:38.741Z,8.68
2022-09-05T06:01:46.778Z,8.30
2022-09-05T06:05:04.396Z,8.85
2022-09-05T06:08:41.297Z,8.05
2022-09-05T06:14:52.723Z,8.15
2022-09-05T06:15:08.938Z,9.82
2022-09-05T06:17:52.908Z,7.03
2022-09-05T06:22:09.154Z,8.65
2022-09-05T06:24:10.344Z,7.47
2022-09-05T06:27:16.895Z,8.88
2022-09-05T06:29:55.547Z,6.93
2022-09-05T06:32:33.055Z,6.65
2022-09-05T06:35:23.629Z,6.82
2022-09-05T06:38:00.966Z,6.03
2022-09-05T06:40:35.304Z,6.68
2022-09-05T06:43:24.566Z,6.07
2022-09-05T06:46:04.323Z,5.68
2022-09-05T06:48:44.616Z,5.65
2022-09-05T06:51:37.887Z,5.13
2022-09-05T06:54:32.625Z,4.22
2022-09-05T06:57:23.764Z,5.85
2022-09-05T07:00:18.169Z,5.97
2022-09-05T07:03:03.930Z,5.90
2022-09-05T07:05:44.732Z,6.10
2022-09-05T07:08:34.123Z,5.38
2022-09-05T07:13:55.156Z,4.50
2022-09-05T07:16:37.183Z,5.97
2022-09-05T07:19:14.364Z,6.28
2022-09-05T07:21:45.536Z,4.93
2022-09-05T07:24:54.604Z,6.10
2022-09-05T07:27:30.023Z,5.55
2022-09-05T07:30:02.338Z,5.85
2022-09-05T07:32:33.809Z,5.82
2022-09-05T07:35:04.413Z,4.72
2022-09-05T07:37:36.611Z,5.68
2022-09-05T07:40:24.689Z,5.53
2022-09-05T07:43:09.402Z,4.95
2022-09-05T07:45:56.232Z,4.72
2022-09-05T07:48:29.753Z,6.05
2022-09-05T07:56:50.755Z,7.15
2022-09-05T07:56:55.620Z,5.60
2022-09-05T07:57:20.859Z,5.35
2022-09-05T07:59:37.750Z,4.65
2022-09-05T08:02:10.941Z,6.80
2022-09-05T08:04:40.994Z,5.38
2022-09-05T08:07:48.272Z,4.50
2022-09-05T08:10:06.661Z,5.20
2022-09-05T08:13:00.593Z,3.90
2022-09-05T08:16:09.777Z,4.93
2022-09-05T08:18:24.922Z,5.45
2022-09-05T08:20:54.891Z,5.55
2022-09-05T08:23:37.675Z,6.73
2022-09-05T08:26:10.712Z,4.65
2022-09-05T08:28:43.597Z,5.88
2022-09-05T08:31:14.979Z,6.03
2022-09-05T08:33:47.238Z,6.13
2022-09-05T08:36:20.841Z,5.18
2022-09-05T08:38:51.116Z,5.22
2022-09-05T08:41:23.630Z,3.65
2022-09-05T08:46:35.742Z,4.43
2022-09-05T08:46:55.956Z,3.28
2022-09-05T08:49:46.120Z,3.80
2022-09-05T08:52:17.190Z,5.13
2022-09-05T08:57:20.715Z,3.47
2022-09-05T09:00:19.147Z,3.72
2022-09-05T09:03:04.478Z,4.47
2022-09-05T09:06:08.524Z,4.50
2022-09-05T09:08:45.238Z,2.42
2022-09-05T09:11:15.761Z,4.57
2022-09-05T09:13:52.405Z,3.38
2022-09-05T09:16:30.554Z,3.92
2022-09-05T09:19:05.695Z,4.80
2022-09-05T09:21:42.681Z,3.22
2022-09-05T09:24:20.436Z,3.42
2022-09-05T09:26:53.996Z,4.22
2022-09-05T09:29:23.430Z,4.47
2022-09-05T09:32:01.579Z,4.32
2022-09-05T09:34:49.402Z,6.20
2022-09-05T09:37:50.701Z,3.08
2022-09-05T09:40:47.682Z,4.07
2022-09-05T09:43:30.884Z,3.47
2022-09-05T09:46:14.333Z,4.05
2022-09-05T09:48:54.794Z,3.90
2022-09-05T09:51:42.683Z,5.82
2022-09-05T09:54:27.486Z,4.63
2022-09-05T09:57:44.927Z,6.20
2022-09-05T10:00:17.699Z,4.90
2022-09-05T10:04:30.988Z,6.03
2022-09-05T10:10:35.088Z,10.70
2022-09-05T10:10:54.004Z,7.03
2022-09-05T10:12:31.871Z,5.93
2022-09-05T10:15:30.656Z,3.65
2022-09-05T10:18:29.052Z,4.05
2022-09-05T10:21:39.304Z,3.35
2022-09-05T10:24:38.419Z,5.15
2022-09-05T10:27:25.137Z,3.85
2022-09-05T10:30:10.508Z,3.28
2022-09-05T10:35:19.869Z,3.47
2022-09-05T10:35:37.505Z,3.78
2022-09-05T10:38:13.303Z,3.53
2022-09-05T10:41:19.892Z,5.22
2022-09-05T10:43:38.890Z,4.90
2022-09-05T10:46:16.959Z,3.05
2022-09-05T10:48:55.770Z,3.67
2022-09-05T10:51:32.422Z,3.85
2022-09-05T10:54:17.561Z,3.75
2022-09-05T10:56:48.377Z,4.15
2022-09-05T11:01:20.719Z,5.18
2022-09-05T11:02:29.620Z,4.43
2022-09-05T11:05:07.580Z,4.10
2022-09-05T11:07:41.771Z,3.50
2022-09-05T11:10:14.576Z,4.43
2022-09-05T11:13:14.367Z,3.08
2022-09-05T11:16:03.822Z,5.13
2022-09-05T11:18:56.901Z,4.90
2022-09-05T11:21:48.529Z,2.92
2022-09-05T11:24:32.901Z,5.05
2022-09-05T11:27:24.602Z,3.10
2022-09-05T11:29:55.732Z,5.22
2022-09-05T11:36:03.972Z,3.70
2022-09-05T11:39:55.070Z,2.15
2022-09-05T11:39:57.629Z,4.85
2022-09-05T11:42:09.061Z,4.60
2022-09-05T11:44:42.913Z,3.05
2022-09-05T11:47:44.139Z,4.70
2022-09-05T11:50:35.654Z,2.20
2022-09-05T11:53:40.899Z,3.20
2022-09-05T11:56:25.506Z,3.10
2022-09-05T11:59:14.671Z,4.80
2022-09-05T12:01:47.682Z,2.70
2022-09-05T12:04:32.585Z,4.93
2022-09-05T12:10:46.445Z,3.00
2022-09-05T12:13:51.174Z,3.55
2022-09-05T12:16:28.834Z,3.15
2022-09-05T12:19:19.065Z,3.70
2022-09-05T12:22:08.702Z,3.35
2022-09-05T12:25:24.068Z,3.28
2022-09-05T12:27:52.477Z,2.92
2022-09-05T12:30:52.218Z,3.25
2022-09-05T12:36:02.409Z,5.15
2022-09-05T12:40:57.037Z,4.25
2022-09-05T12:41:35.011Z,4.38
2022-09-05T12:42:08.241Z,3.22
2022-09-05T12:42:33.086Z,2.90
2022-09-05T12:45:11.822Z,1.98
2022-09-05T12:47:55.355Z,2.97
2022-09-05T12:50:32.353Z,2.17
2022-09-05T12:53:05.692Z,2.88
2022-09-05T12:55:37.101Z,2.78
2022-09-05T13:02:56.793Z,2.67
2022-09-05T13:03:09.381Z,3.65
2022-09-05T13:04:18.548Z,3.45
2022-09-05T13:06:51.225Z,3.30
2022-09-05T13:09:27.736Z,3.85
2022-09-05T13:14:57.661Z,2.95
2022-09-05T13:15:21.893Z,2.83
2022-09-05T13:17:55.608Z,2.35
2022-09-05T13:20:34.393Z,3.55
2022-09-05T13:23:05.890Z,3.35
2022-09-05T13:25:36.181Z,3.47
2022-09-05T13:28:08.524Z,2.05
2022-09-05T13:36:22.156Z,3.63
2022-09-05T13:38:06.457Z,6.50
2022-09-05T13:38:12.341Z,2.22
2022-09-05T13:39:28.305Z,4.75
2022-09-05T13:41:59.664Z,2.17
2022-09-05T13:44:30.128Z,2.47
2022-09-05T13:49:55.540Z,2.55
2022-09-05T13:52:30.025Z,2.25
2022-09-05T13:55:07.386Z,3.25
2022-09-05T13:57:38.989Z,2.75
2022-09-05T14:00:40.953Z,2.28
2022-09-05T14:03:36.090Z,2.05
2022-09-05T14:06:46.382Z,3.38
2022-09-05T14:12:08.150Z,1.85
2022-09-05T14:17:51.517Z,3.05
2022-09-05T14:20:37.513Z,2.17
2022-09-05T14:23:09.288Z,2.65
2022-09-05T14:25:40.363Z,3.13
2022-09-05T14:28:14.446Z,3.30
2022-09-05T14:33:48.050Z,2.10
2022-09-05T14:37:40.436Z,2.17
2022-09-05T14:37:50.569Z,2.97
2022-09-05T14:42:38.193Z,2.05
2022-09-05T14:45:33.282Z,1.58
2022-09-05T14:48:29.134Z,1.90
2022-09-05T14:51:25.496Z,1.85
2022-09-05T14:54:02.789Z,2.90
2022-09-05T14:57:23.745Z,3.67
2022-09-05T15:02:45.724Z,1.63
2022-09-05T15:02:50.349Z,2.47
2022-09-05T15:05:21.342Z,1.75
2022-09-05T15:07:55.317Z,2.92
2022-09-05T15:12:20.615Z,1.88
2022-09-05T15:13:25.867Z,3.28
2022-09-05T15:16:02.141Z,3.08
2022-09-05T15:18:33.052Z,2.38
2022-09-05T15:21:33.396Z,2.95
2022-09-05T15:24:13.708Z,2.38
2022-09-05T15:26:53.811Z,3.03
2022-09-05T15:29:25.214Z,2.00
2022-09-05T15:32:09.537Z,1.92
2022-09-05T15:34:39.941Z,3.25
2022-09-05T15:37:25.090Z,3.03
2022-09-05T15:40:03.792Z,2.85
2022-09-05T15:42:41.098Z,2.00
2022-09-05T15:45:12.721Z,2.42
2022-09-05T15:47:47.313Z,2.38
2022-09-05T15:50:22.662Z,2.00
2022-09-05T15:52:55.269Z,2.47
2022-09-05T15:55:26.336Z,2.42
2022-09-05T15:57:59.213Z,3.33
2022-09-05T16:00:38.973Z,3.50
2022-09-05T16:04:49.883Z,2.10
2022-09-05T16:07:42.984Z,1.83
2022-09-05T16:10:50.282Z,3.35
2022-09-05T16:14:39.592Z,1.80
2022-09-05T16:23:19.203Z,2.33
2022-09-05T16:23:28.095Z,2.08
2022-09-05T16:25:43.940Z,3.03
2022-09-05T16:28:15.600Z,2.85
2022-09-05T16:30:47.691Z,1.67
2022-09-05T16:33:18.735Z,2.83
2022-09-05T16:35:50.392Z,3.67
2022-09-05T16:38:25.874Z,2.53
2022-09-05T16:41:12.156Z,3.20
2022-09-05T16:43:44.003Z,3.58
2022-09-05T16:46:20.850Z,2.80
2022-09-05T16:48:55.013Z,2.30
2022-09-05T16:51:35.419Z,3.38
2022-09-05T16:54:10.977Z,1.73
2022-09-05T16:56:42.091Z,2.80
2022-09-05T16:59:12.372Z,3.05
2022-09-05T17:02:05.766Z,2.05
2022-09-05T17:05:04.411Z,3.05
2022-09-05T17:07:54.585Z,3.35
2022-09-05T17:10:25.528Z,3.65
2022-09-05T17:12:55.086Z,2.30
2022-09-05T17:15:26.215Z,1.90
2022-09-05T17:18:20.091Z,3.60
2022-09-05T17:20:52.280Z,2.38
2022-09-05T17:29:26.819Z,2.30
2022-09-05T17:29:40.658Z,2.20
2022-09-05T17:31:58.550Z,2.33
2022-09-05T17:34:58.736Z,2.30
2022-09-05T17:38:11.021Z,3.03
2022-09-05T17:41:06.861Z,2.55
2022-09-05T17:43:38.612Z,2.80
2022-09-05T17:46:17.327Z,3.00
2022-09-05T17:49:19.311Z,3.80
2022-09-05T17:52:23.663Z,2.97
2022-09-05T17:54:55.055Z,4.03
2022-09-05T17:57:41.308Z,3.17
2022-09-05T18:01:05.596Z,3.05
2022-09-05T18:04:18.116Z,4.90
2022-09-05T18:06:59.579Z,4.30
2022-09-05T18:10:14.569Z,2.50
2022-09-05T18:13:13.713Z,3.78
2022-09-05T18:16:13.277Z,2.83
2022-09-05T18:19:29.536Z,2.58
2022-09-05T18:21:49.781Z,2.25
2022-09-05T18:24:24.216Z,1.88
2022-09-05T18:26:56.045Z,2.97
2022-09-05T18:32:45.268Z,3.55
2022-09-05T18:35:37.705Z,3.00
2022-09-05T18:38:18.394Z,2.13
2022-09-05T18:41:09.273Z,3.95
2022-09-05T18:43:54.641Z,3.70
2022-09-05T18:46:40.969Z,6.93
2022-09-05T18:50:08.200Z,4.85
2022-09-05T18:52:03.052Z,4.05
2022-09-05T18:54:33.388Z,2.58
2022-09-05T18:57:27.330Z,3.70
2022-09-05T18:59:54.703Z,2.70
2022-09-05T19:02:51.225Z,2.50
2022-09-05T19:05:28.416Z,3.83
2022-09-05T19:07:59.676Z,3.60
2022-09-05T19:10:34.669Z,5.88
2022-09-05T19:13:11.600Z,8.32
2022-09-05T19:15:48.256Z,7.82
2022-09-05T19:18:26.921Z,6.15
2022-09-05T19:21:12.075Z,6.18
2022-09-05T19:23:44.982Z,5.03
2022-09-05T19:26:14.430Z,4.70
2022-09-05T19:36:51.769Z,3.95
2022-09-05T19:36:57.561Z,2.22
2022-09-05T19:37:15.602Z,4.90
2022-09-05T19:37:38.239Z,3.22
2022-09-05T19:47:29.615Z,4.70
2022-09-05T19:47:40.839Z,4.13
2022-09-05T19:47:42.436Z,4.95
2022-09-05T19:48:40.304Z,5.10
2022-09-05T19:51:18.232Z,6.13
2022-09-05T19:54:04.139Z,5.05
2022-09-05T19:56:36.167Z,4.97
2022-09-05T19:59:06.382Z,4.10
2022-09-05T20:01:35.991Z,3.50
2022-09-05T20:04:05.685Z,3.28
2022-09-05T20:06:37.784Z,5.25
2022-09-05T20:09:11.809Z,4.53
2022-09-05T20:11:46.453Z,5.97
2022-09-05T20:14:20.441Z,3.67
2022-09-05T20:16:50.432Z,4.20
2022-09-05T20:19:31.770Z,2.35
2022-09-05T20:22:47.627Z,4.40
2022-09-05T20:25:05.985Z,3.40
2022-09-05T20:27:35.586Z,4.65
2022-09-05T20:30:06.352Z,4.13
2022-09-05T20:32:40.518Z,4.38
2022-09-05T20:41:55.903Z,4.40
2022-09-05T20:43:12.303Z,3.55
2022-09-05T20:43:20.809Z,3.28
2022-09-05T20:44:22.837Z,3.47
2022-09-05T20:50:38.642Z,4.10
2022-09-05T20:54:22.168Z,3.80
2022-09-05T20:54:27.030Z,3.50
2022-09-05T20:55:38.190Z,4.50
2022-09-05T20:58:11.474Z,3.60
2022-09-05T21:01:15.509Z,4.80
2022-09-05T21:03:36.707Z,2.95
2022-09-05T21:06:19.999Z,4.15
2022-09-05T21:08:49.582Z,7.35
2022-09-05T21:11:30.327Z,2.70
2022-09-05T21:14:00.581Z,2.83
2022-09-05T21:16:31.177Z,3.17
2022-09-05T21:19:00.704Z,3.20
2022-09-05T21:21:30.921Z,3.53
2022-09-05T21:24:16.663Z,3.92
2022-09-05T21:26:53.469Z,4.05
2022-09-05T21:29:33.335Z,2.85
2022-09-05T21:32:03.972Z,5.15
2022-09-05T21:34:45.405Z,3.60
2022-09-05T21:37:15.648Z,4.35
2022-09-05T21:39:59.278Z,3.67
2022-09-05T21:47:20.352Z,5.00
2022-09-05T21:47:44.281Z,3.78
2022-09-05T21:48:15.082Z,5.15
2022-09-05T21:50:48.981Z,5.18
2022-09-05T21:56:24.187Z,3.92
2022-09-05T21:59:18.594Z,3.83
2022-09-05T21:59:25.142Z,3.42
2022-09-05T22:02:05.427Z,4.93
2022-09-05T22:04:40.058Z,4.25
2022-09-05T22:07:26.383Z,4.30
2022-09-05T22:10:03.249Z,5.97
2022-09-05T22:12:35.901Z,4.47
2022-09-05T22:15:26.534Z,6.53
2022-09-05T22:18:16.204Z,3.20
2022-09-05T22:21:01.320Z,4.18
2022-09-05T22:23:37.091Z,3.33
2022-09-05T22:26:07.895Z,6.05
2022-09-05T22:31:10.651Z,4.05
2022-09-05T22:33:40.971Z,3.40
2022-09-05T22:36:10.808Z,3.92
2022-09-05T22:38:43.427Z,4.15
2022-09-05T22:41:13.028Z,3.63
2022-09-05T22:43:43.549Z,3.80
2022-09-05T22:46:15.606Z,3.78
2022-09-05T22:48:45.072Z,4.25
2022-09-05T22:51:16.557Z,3.13
2022-09-05T22:53:45.993Z,3.67
2022-09-05T22:56:15.480Z,4.03
2022-09-05T22:58:46.801Z,3.97
2022-09-05T23:01:18.903Z,3.67
2022-09-05T23:03:48.500Z,4.00
2022-09-05T23:06:17.968Z,3.70
2022-09-05T23:08:47.409Z,3.40
2022-09-05T23:11:18.026Z,4.68
2022-09-05T23:13:47.649Z,3.10
2022-09-05T23:16:19.700Z,4.25
2022-09-05T23:18:52.074Z,4.13
2022-09-05T23:21:21.570Z,3.33
2022-09-05T23:23:51.144Z,4.57
2022-09-05T23:26:20.592Z,3.95
2022-09-05T23:28:50.041Z,3.28
2022-09-05T23:31:22.135Z,4.05
2022-09-05T23:33:51.920Z,4.40
2022-09-05T23:36:21.345Z,5.05
2022-09-05T23:38:50.785Z,4.15
2022-09-05T23:41:20.240Z,3.75
2022-09-05T23:43:49.686Z,3.92
2022-09-05T23:46:21.724Z,3.75
2022-09-05T23:48:51.295Z,4.00
2022-09-05T23:51:20.809Z,4.57
2022-09-05T23:53:50.248Z,5.18
2022-09-05T23:56:19.725Z,5.35
2022-09-05T23:58:49.160Z,4.18
